Time;durP1;ratioP1;P1;durP2;ratioP2;P2;SDS_P1;SDS_P2;PMS_P1;PMS_P2;Temp;Humidity;BMP_temperature;BMP_pressure;BME280_temperature;BME280_humidity;BME280_pressure;Samples;Min_cycle;Max_cycle;Signal;HPM_P1;HPM_P2
2022/03/02 00:01:12;;;;;;;6.10;5.45;;;;;;;;;;5099524;28;20539;-61
2022/03/02 00:03:39;;;;;;;5.97;5.38;;;;;;;;;;5093316;28;20169;-61
2022/03/02 00:06:04;;;;;;;6.32;4.82;;;;;;;;;;5101970;28;20183;-62
2022/03/02 00:08:29;;;;;;;5.47;4.97;;;;;;;;;;5097311;28;20719;-61
2022/03/02 00:10:54;;;;;;;7.78;4.90;;;;;;;;;;5090064;28;20193;-61
2022/03/02 00:13:20;;;;;;;5.30;4.80;;;;;;;;;;5077422;28;21027;-61
2022/03/02 00:15:45;;;;;;;5.10;4.47;;;;;;;;;;5079114;28;20183;-61
2022/03/02 00:18:11;;;;;;;5.30;4.80;;;;;;;;;;5095200;28;20588;-61
2022/03/02 00:20:37;;;;;;;5.82;5.25;;;;;;;;;;5096101;28;20176;-61
2022/03/02 00:23:02;;;;;;;8.02;6.25;;;;;;;;;;5097417;28;20663;-61
2022/03/02 00:25:28;;;;;;;6.05;5.45;;;;;;;;;;5097372;28;20192;-62
2022/03/02 00:27:53;;;;;;;7.93;5.40;;;;;;;;;;5102937;28;20185;-61
2022/03/02 00:30:18;;;;;;;5.85;5.25;;;;;;;;;;5097270;28;20236;-61
2022/03/02 00:32:43;;;;;;;8.75;6.20;;;;;;;;;;5081132;28;20184;-61
2022/03/02 00:35:09;;;;;;;8.52;6.22;;;;;;;;;;5077826;28;20180;-61
2022/03/02 00:37:34;;;;;;;8.07;6.72;;;;;;;;;;5080147;28;20204;-61
2022/03/02 00:39:59;;;;;;;7.57;6.65;;;;;;;;;;5091408;28;20165;-61
2022/03/02 00:42:25;;;;;;;8.30;7.10;;;;;;;;;;5092859;28;20172;-61
2022/03/02 00:44:50;;;;;;;8.63;7.55;;;;;;;;;;5095569;28;20727;-61
2022/03/02 00:47:15;;;;;;;8.38;6.38;;;;;;;;;;5091612;28;20189;-61
2022/03/02 00:49:41;;;;;;;11.57;7.45;;;;;;;;;;5095660;28;20808;-61
2022/03/02 00:52:09;;;;;;;10.75;8.27;;;;;;;;;;5096945;28;20622;-61
2022/03/02 00:54:34;;;;;;;14.23;9.48;;;;;;;;;;5097466;28;20206;-61
2022/03/02 00:56:59;;;;;;;14.00;9.88;;;;;;;;;;5096412;28;20731;-61
2022/03/02 00:59:25;;;;;;;14.40;9.32;;;;;;;;;;5097335;28;20185;-61
2022/03/02 01:01:50;;;;;;;16.25;11.60;;;;;;;;;;5093758;28;20681;-60
2022/03/02 01:04:15;;;;;;;18.40;13.48;;;;;;;;;;5098307;28;20515;-60
2022/03/02 01:06:41;;;;;;;17.70;11.32;;;;;;;;;;5091356;28;20172;-62
2022/03/02 01:09:07;;;;;;;18.83;10.38;;;;;;;;;;5093611;28;20251;-61
2022/03/02 01:11:32;;;;;;;15.13;10.15;;;;;;;;;;5104760;28;20176;-61
2022/03/02 01:13:57;;;;;;;14.68;10.98;;;;;;;;;;5094578;28;20172;-61
2022/03/02 01:16:23;;;;;;;16.88;11.80;;;;;;;;;;5076618;28;20169;-61
2022/03/02 01:18:48;;;;;;;13.70;10.32;;;;;;;;;;5097543;28;20306;-60
2022/03/02 01:21:13;;;;;;;12.93;9.88;;;;;;;;;;5092038;28;20176;-61
2022/03/02 01:23:39;;;;;;;13.85;9.52;;;;;;;;;;5097261;28;20652;-60
2022/03/02 01:26:04;;;;;;;14.52;8.93;;;;;;;;;;5094799;28;20178;-61
2022/03/02 01:28:30;;;;;;;12.98;9.27;;;;;;;;;;5092240;28;20261;-61
2022/03/02 01:30:55;;;;;;;11.77;8.80;;;;;;;;;;5092931;28;20183;-60
2022/03/02 01:33:20;;;;;;;12.68;9.10;;;;;;;;;;5097314;28;20695;-61
2022/03/02 01:35:45;;;;;;;12.50;9.60;;;;;;;;;;5085654;28;20177;-60
2022/03/02 01:38:11;;;;;;;12.48;9.95;;;;;;;;;;5076130;28;20243;-61
2022/03/02 01:40:36;;;;;;;13.27;9.10;;;;;;;;;;5078609;28;20254;-61
2022/03/02 01:43:02;;;;;;;10.95;8.98;;;;;;;;;;5097484;28;20182;-61
2022/03/02 01:45:27;;;;;;;13.13;8.98;;;;;;;;;;5095416;28;20176;-61
2022/03/02 01:47:53;;;;;;;13.55;9.70;;;;;;;;;;5088901;28;20184;-61
2022/03/02 01:50:18;;;;;;;12.13;9.15;;;;;;;;;;5098876;28;20195;-61
2022/03/02 01:52:43;;;;;;;12.43;9.25;;;;;;;;;;5098810;28;20255;-61
2022/03/02 01:55:10;;;;;;;11.52;8.90;;;;;;;;;;5098947;28;20176;-61
2022/03/02 01:57:35;;;;;;;17.30;9.98;;;;;;;;;;5077874;28;20261;-61
2022/03/02 02:00:04;;;;;;;12.07;9.30;;;;;;;;;;5076712;28;20180;-61
2022/03/02 02:02:29;;;;;;;13.68;9.38;;;;;;;;;;5100465;28;20255;-61
2022/03/02 02:04:54;;;;;;;15.00;9.95;;;;;;;;;;5097554;28;20254;-61
2022/03/02 02:07:22;;;;;;;11.85;9.55;;;;;;;;;;5096106;28;20179;-61
2022/03/02 02:09:48;;;;;;;12.18;9.32;;;;;;;;;;5100281;28;20168;-61
2022/03/02 02:12:13;;;;;;;11.18;9.32;;;;;;;;;;5096807;28;20184;-61
2022/03/02 02:14:38;;;;;;;13.32;10.30;;;;;;;;;;5093552;28;20186;-61
2022/03/02 02:17:04;;;;;;;13.27;10.20;;;;;;;;;;5093128;28;20195;-61
2022/03/02 02:19:29;;;;;;;10.38;8.98;;;;;;;;;;5095602;28;20180;-61
2022/03/02 02:21:54;;;;;;;12.77;8.88;;;;;;;;;;5097474;28;20176;-61
2022/03/02 02:24:19;;;;;;;12.13;8.75;;;;;;;;;;5104594;28;20313;-61
2022/03/02 02:26:45;;;;;;;9.48;8.00;;;;;;;;;;5099603;28;20640;-61
2022/03/02 02:29:11;;;;;;;13.07;8.40;;;;;;;;;;5097161;28;20198;-61
2022/03/02 02:31:36;;;;;;;12.20;8.60;;;;;;;;;;5099818;28;20702;-61
2022/03/02 02:34:02;;;;;;;10.27;7.70;;;;;;;;;;5095020;28;20262;-61
2022/03/02 02:36:27;;;;;;;8.90;7.43;;;;;;;;;;5103792;28;20172;-61
2022/03/02 02:38:54;;;;;;;9.57;7.25;;;;;;;;;;5094542;28;20290;-61
2022/03/02 02:41:20;;;;;;;10.07;7.50;;;;;;;;;;5095920;28;20282;-61
2022/03/02 02:43:46;;;;;;;10.23;7.93;;;;;;;;;;5097187;28;20788;-61
2022/03/02 02:46:11;;;;;;;12.13;8.27;;;;;;;;;;5102725;28;20172;-61
2022/03/02 02:48:37;;;;;;;10.07;7.72;;;;;;;;;;5107216;28;20206;-61
2022/03/02 02:51:03;;;;;;;10.75;7.68;;;;;;;;;;5096600;28;20644;-61
2022/03/02 02:53:28;;;;;;;10.10;8.13;;;;;;;;;;5093753;28;20177;-61
2022/03/02 02:55:54;;;;;;;9.77;7.80;;;;;;;;;;5098846;28;20191;-61
2022/03/02 02:58:19;;;;;;;9.95;7.78;;;;;;;;;;5096623;28;20270;-61
2022/03/02 03:00:45;;;;;;;9.10;7.68;;;;;;;;;;5097366;28;20270;-61
2022/03/02 03:03:11;;;;;;;10.45;7.25;;;;;;;;;;5099890;28;20168;-61
2022/03/02 03:05:36;;;;;;;8.40;7.10;;;;;;;;;;5105339;28;20171;-61
2022/03/02 03:08:03;;;;;;;9.32;7.30;;;;;;;;;;5106950;28;20172;-61
2022/03/02 03:10:30;;;;;;;8.77;6.70;;;;;;;;;;5102415;28;20606;-61
2022/03/02 03:12:55;;;;;;;8.35;6.93;;;;;;;;;;5104455;28;20647;-61
2022/03/02 03:15:21;;;;;;;7.43;6.55;;;;;;;;;;5098062;28;20198;-61
2022/03/02 03:17:47;;;;;;;9.93;6.97;;;;;;;;;;5095161;28;20560;-61
2022/03/02 03:20:15;;;;;;;9.93;7.05;;;;;;;;;;5094908;28;20169;-61
2022/03/02 03:22:40;;;;;;;7.78;6.40;;;;;;;;;;5098077;28;20183;-61
2022/03/02 03:25:07;;;;;;;8.85;6.80;;;;;;;;;;5100497;28;20175;-61
2022/03/02 03:27:32;;;;;;;9.18;6.47;;;;;;;;;;5101938;28;20268;-61
2022/03/02 03:29:58;;;;;;;11.95;6.45;;;;;;;;;;5105590;28;20266;-62
2022/03/02 03:32:23;;;;;;;8.70;6.72;;;;;;;;;;5101583;28;20266;-61
2022/03/02 03:34:48;;;;;;;7.78;6.97;;;;;;;;;;5101113;28;20207;-61
2022/03/02 03:37:14;;;;;;;12.35;6.80;;;;;;;;;;5108155;28;20233;-61
2022/03/02 03:39:39;;;;;;;6.85;6.15;;;;;;;;;;5098568;28;20179;-61
2022/03/02 03:42:04;;;;;;;7.25;6.43;;;;;;;;;;5086966;28;20180;-61
2022/03/02 03:44:30;;;;;;;9.00;6.32;;;;;;;;;;5078648;28;20187;-61
2022/03/02 03:46:55;;;;;;;7.28;5.85;;;;;;;;;;5080877;28;20257;-61
2022/03/02 03:49:20;;;;;;;8.25;6.80;;;;;;;;;;5096920;28;20279;-61
2022/03/02 03:51:46;;;;;;;7.80;7.00;;;;;;;;;;5103177;28;20199;-61
2022/03/02 03:54:11;;;;;;;8.45;6.80;;;;;;;;;;5094751;28;20168;-61
2022/03/02 03:56:37;;;;;;;8.05;6.97;;;;;;;;;;5105524;28;20186;-61
2022/03/02 03:59:03;;;;;;;8.27;6.97;;;;;;;;;;5100278;28;20780;-61
2022/03/02 04:01:29;;;;;;;8.20;6.38;;;;;;;;;;5100186;28;20241;-61
2022/03/02 04:03:54;;;;;;;8.13;6.82;;;;;;;;;;5078510;28;20859;-61
2022/03/02 04:06:19;;;;;;;7.72;6.45;;;;;;;;;;5078560;28;20239;-61
2022/03/02 04:08:45;;;;;;;7.70;6.50;;;;;;;;;;5084879;28;20211;-61
2022/03/02 04:11:11;;;;;;;8.52;6.38;;;;;;;;;;5099125;28;20185;-61
2022/03/02 04:13:36;;;;;;;6.40;5.68;;;;;;;;;;5091748;28;20172;-61
2022/03/02 04:16:02;;;;;;;6.82;6.22;;;;;;;;;;5093423;28;20176;-61
2022/03/02 04:18:27;;;;;;;6.57;5.97;;;;;;;;;;5096218;28;20193;-61
2022/03/02 04:20:52;;;;;;;6.93;6.22;;;;;;;;;;5096223;28;20183;-61
2022/03/02 04:23:18;;;;;;;7.82;5.68;;;;;;;;;;5092647;28;20165;-61
2022/03/02 04:25:43;;;;;;;5.97;5.38;;;;;;;;;;5097297;28;20855;-61
2022/03/02 04:28:08;;;;;;;8.63;6.63;;;;;;;;;;5099149;28;20668;-61
2022/03/02 04:30:34;;;;;;;6.80;6.13;;;;;;;;;;5106206;28;20175;-61
2022/03/02 04:32:59;;;;;;;6.57;5.80;;;;;;;;;;5091436;28;20205;-61
2022/03/02 04:35:25;;;;;;;7.20;6.00;;;;;;;;;;5097680;28;20652;-61
2022/03/02 04:37:50;;;;;;;5.88;5.18;;;;;;;;;;5097327;28;20236;-61
2022/03/02 04:40:16;;;;;;;8.43;6.30;;;;;;;;;;5102270;28;20264;-62
2022/03/02 04:42:42;;;;;;;7.47;6.35;;;;;;;;;;5098377;28;20176;-61
2022/03/02 04:45:07;;;;;;;7.35;6.65;;;;;;;;;;5084431;28;20184;-61
2022/03/02 04:47:32;;;;;;;7.95;6.72;;;;;;;;;;5097293;28;20232;-61
2022/03/02 04:49:58;;;;;;;8.95;6.97;;;;;;;;;;5100015;28;20707;-61
2022/03/02 04:52:23;;;;;;;9.60;7.53;;;;;;;;;;5100612;28;20183;-62
2022/03/02 04:55:06;;;;;;;9.15;7.70;;;;;;;;;;5096674;28;20188;-61
2022/03/02 04:57:39;;;;;;;11.60;7.50;;;;;;;;;;5094414;28;20203;-61
2022/03/02 05:00:10;;;;;;;8.68;7.18;;;;;;;;;;5102635;28;20279;-61
2022/03/02 05:02:36;;;;;;;8.57;7.28;;;;;;;;;;5094676;28;20207;-61
2022/03/02 05:05:01;;;;;;;7.65;6.57;;;;;;;;;;5094245;28;20270;-61
2022/03/02 05:07:26;;;;;;;9.35;7.55;;;;;;;;;;5075302;28;20211;-62
2022/03/02 05:09:52;;;;;;;9.07;7.40;;;;;;;;;;5097592;28;20240;-61
2022/03/02 05:12:18;;;;;;;11.23;8.18;;;;;;;;;;5100088;28;20674;-61
2022/03/02 05:14:43;;;;;;;9.65;7.70;;;;;;;;;;5096142;28;20193;-61
2022/03/02 05:17:08;;;;;;;10.00;7.30;;;;;;;;;;5098130;28;20286;-61
2022/03/02 05:19:34;;;;;;;12.27;8.18;;;;;;;;;;5093467;28;20649;-62
2022/03/02 05:21:59;;;;;;;10.65;7.95;;;;;;;;;;5098850;28;20276;-61
2022/03/02 05:24:24;;;;;;;10.77;8.30;;;;;;;;;;5099729;28;20681;-61
2022/03/02 05:26:49;;;;;;;9.15;7.40;;;;;;;;;;5102592;28;21146;-62
2022/03/02 05:29:15;;;;;;;12.48;8.55;;;;;;;;;;5096818;28;20867;-61
2022/03/02 05:31:40;;;;;;;14.07;9.38;;;;;;;;;;5098330;28;20163;-61
2022/03/02 05:34:06;;;;;;;14.15;9.60;;;;;;;;;;5095342;28;20176;-61
2022/03/02 05:36:32;;;;;;;12.65;9.73;;;;;;;;;;5088856;28;20184;-61
2022/03/02 05:38:57;;;;;;;13.88;9.75;;;;;;;;;;5088592;28;20192;-62
2022/03/02 05:41:23;;;;;;;13.65;10.05;;;;;;;;;;5097226;28;20675;-61
2022/03/02 05:43:48;;;;;;;13.13;10.18;;;;;;;;;;5094834;28;20184;-62
2022/03/02 05:46:14;;;;;;;17.55;11.43;;;;;;;;;;5107164;28;20164;-61
2022/03/02 05:48:39;;;;;;;13.27;10.20;;;;;;;;;;5082864;28;20199;-61
2022/03/02 05:51:05;;;;;;;13.13;10.55;;;;;;;;;;5076561;28;20180;-61
2022/03/02 05:53:30;;;;;;;10.57;8.27;;;;;;;;;;5100884;28;20178;-62
2022/03/02 05:55:55;;;;;;;5.40;4.90;;;;;;;;;;5094768;28;20198;-62
2022/03/02 05:58:20;;;;;;;4.53;4.13;;;;;;;;;;5093925;28;20188;-61
2022/03/02 06:00:46;;;;;;;4.78;4.32;;;;;;;;;;5101664;28;20657;-62
2022/03/02 06:03:11;;;;;;;5.28;4.50;;;;;;;;;;5094325;28;20178;-62
2022/03/02 06:05:36;;;;;;;4.20;3.85;;;;;;;;;;5096142;28;20581;-61
2022/03/02 06:08:02;;;;;;;7.72;5.20;;;;;;;;;;5097587;28;20180;-62
2022/03/02 06:10:27;;;;;;;3.80;3.50;;;;;;;;;;5075043;28;20196;-61
2022/03/02 06:12:53;;;;;;;8.27;6.70;;;;;;;;;;5077203;28;20176;-62
2022/03/02 06:15:18;;;;;;;7.35;6.57;;;;;;;;;;5084132;28;20187;-62
2022/03/02 06:17:44;;;;;;;6.57;6.00;;;;;;;;;;5098662;28;20199;-62
2022/03/02 06:20:10;;;;;;;10.25;8.13;;;;;;;;;;5099073;28;20562;-62
2022/03/02 06:22:36;;;;;;;21.45;14.48;;;;;;;;;;5102050;28;20182;-62
2022/03/02 06:25:01;;;;;;;40.30;22.67;;;;;;;;;;5091598;28;20172;-61
2022/03/02 06:27:27;;;;;;;48.17;26.15;;;;;;;;;;5103613;28;20236;-61
2022/03/02 06:29:52;;;;;;;43.75;23.30;;;;;;;;;;5097372;28;20177;-61
2022/03/02 06:32:17;;;;;;;37.92;21.65;;;;;;;;;;5079659;28;20185;-62
2022/03/02 06:34:42;;;;;;;28.30;15.80;;;;;;;;;;5096595;28;20187;-62
2022/03/02 06:37:08;;;;;;;27.35;17.55;;;;;;;;;;5099975;28;20233;-61
2022/03/02 06:39:33;;;;;;;14.18;8.10;;;;;;;;;;5101678;28;20230;-61
2022/03/02 06:42:05;;;;;;;12.25;7.35;;;;;;;;;;5107068;28;20652;-61
2022/03/02 06:44:41;;;;;;;11.25;7.75;;;;;;;;;;5097996;28;20172;-62
2022/03/02 06:47:12;;;;;;;44.47;27.63;;;;;;;;;;5097668;28;20172;-61
2022/03/02 06:49:47;;;;;;;49.70;28.83;;;;;;;;;;5100422;28;20196;-61
2022/03/02 06:52:15;;;;;;;37.92;21.45;;;;;;;;;;5098767;28;20186;-62
2022/03/02 06:54:42;;;;;;;18.15;12.48;;;;;;;;;;5099026;28;20230;-61
2022/03/02 06:57:09;;;;;;;13.02;9.38;;;;;;;;;;5103068;28;20241;-61
2022/03/02 06:59:38;;;;;;;8.98;6.82;;;;;;;;;;5099926;28;20195;-61
2022/03/02 07:02:04;;;;;;;8.02;7.05;;;;;;;;;;5100891;28;20172;-62
2022/03/02 07:04:51;;;;;;;21.42;9.35;;;;;;;;;;5093275;28;20172;-61
2022/03/02 07:07:17;;;;;;;11.88;9.20;;;;;;;;;;5093096;28;21208;-62
2022/03/02 07:09:44;;;;;;;20.25;9.40;;;;;;;;;;5089702;28;20207;-62
2022/03/02 07:12:10;;;;;;;12.43;9.00;;;;;;;;;;5087053;28;20263;-62
2022/03/02 07:14:35;;;;;;;13.95;8.95;;;;;;;;;;5078966;28;20749;-61
2022/03/02 07:17:02;;;;;;;42.33;30.33;;;;;;;;;;5081059;28;20258;-62
2022/03/02 07:19:27;;;;;;;19.63;13.23;;;;;;;;;;5099719;28;20172;-62
2022/03/02 07:21:55;;;;;;;15.75;10.32;;;;;;;;;;5102203;28;20186;-62
2022/03/02 07:24:22;;;;;;;17.10;11.80;;;;;;;;;;5102196;28;20365;-62
2022/03/02 07:26:51;;;;;;;16.33;11.55;;;;;;;;;;5104148;28;20199;-62
2022/03/02 07:29:18;;;;;;;23.38;11.55;;;;;;;;;;5102444;28;20228;-62
2022/03/02 07:31:45;;;;;;;17.50;10.65;;;;;;;;;;5098257;28;20179;-62
2022/03/02 07:34:11;;;;;;;22.50;12.27;;;;;;;;;;5078504;28;20234;-62
2022/03/02 07:36:37;;;;;;;14.48;10.30;;;;;;;;;;5079386;28;20253;-62
2022/03/02 07:39:02;;;;;;;16.38;10.57;;;;;;;;;;5098456;28;20222;-61
2022/03/02 07:41:28;;;;;;;18.50;11.18;;;;;;;;;;5103431;28;20207;-62
2022/03/02 07:43:54;;;;;;;19.80;11.25;;;;;;;;;;5096102;27;20204;-62
2022/03/02 07:46:20;;;;;;;15.82;10.93;;;;;;;;;;5089737;28;20222;-62
2022/03/02 07:48:45;;;;;;;17.58;11.95;;;;;;;;;;5092941;28;20180;-62
2022/03/02 07:51:10;;;;;;;16.88;11.93;;;;;;;;;;5100708;28;20204;-62
2022/03/02 07:53:43;;;;;;;17.52;10.98;;;;;;;;;;5097926;28;20175;-61
2022/03/02 07:56:09;;;;;;;17.67;11.75;;;;;;;;;;5098073;28;20190;-61
2022/03/02 07:58:36;;;;;;;8.32;6.57;;;;;;;;;;5099518;28;20221;-62
2022/03/02 08:01:03;;;;;;;4.72;4.25;;;;;;;;;;5106940;28;20225;-62
2022/03/02 08:03:30;;;;;;;7.25;4.47;;;;;;;;;;5095792;28;20559;-61
2022/03/02 08:06:02;;;;;;;6.18;5.13;;;;;;;;;;5100115;28;20203;-61
2022/03/02 08:08:28;;;;;;;4.63;4.22;;;;;;;;;;5103312;28;20613;-61
2022/03/02 08:10:53;;;;;;;5.18;4.68;;;;;;;;;;5095176;28;20176;-62
2022/03/02 08:13:18;;;;;;;22.23;14.43;;;;;;;;;;5102747;28;20183;-61
2022/03/02 08:15:44;;;;;;;23.60;13.73;;;;;;;;;;5082324;28;20193;-61
2022/03/02 08:18:10;;;;;;;15.05;10.23;;;;;;;;;;5078045;28;20678;-62
2022/03/02 08:20:36;;;;;;;6.90;5.82;;;;;;;;;;5082082;28;20689;-61
2022/03/02 08:23:03;;;;;;;7.78;5.40;;;;;;;;;;5108061;28;20249;-61
2022/03/02 08:25:30;;;;;;;5.60;4.90;;;;;;;;;;5097496;28;20260;-62
2022/03/02 08:27:57;;;;;;;5.38;4.43;;;;;;;;;;5095028;28;20207;-62
2022/03/02 08:30:23;;;;;;;3.10;2.90;;;;;;;;;;5100758;28;20176;-61
2022/03/02 08:32:48;;;;;;;3.35;3.05;;;;;;;;;;5093001;28;20248;-61
2022/03/02 08:35:14;;;;;;;4.07;3.78;;;;;;;;;;5098201;28;20180;-61
2022/03/02 08:37:40;;;;;;;4.85;4.45;;;;;;;;;;5076204;28;20220;-62
2022/03/02 08:40:06;;;;;;;4.65;4.25;;;;;;;;;;5078220;28;20238;-61
2022/03/02 08:42:32;;;;;;;4.22;3.92;;;;;;;;;;5084687;28;20177;-62
2022/03/02 08:44:57;;;;;;;4.15;3.83;;;;;;;;;;5098597;28;20233;-62
2022/03/02 08:47:25;;;;;;;5.53;4.35;;;;;;;;;;5103156;28;20176;-61
2022/03/02 08:49:51;;;;;;;6.07;5.47;;;;;;;;;;5095388;28;20231;-62
2022/03/02 08:52:20;;;;;;;4.65;4.25;;;;;;;;;;5099442;28;20225;-62
2022/03/02 08:54:47;;;;;;;4.38;3.55;;;;;;;;;;5100423;28;20222;-62
2022/03/02 08:57:13;;;;;;;7.03;4.70;;;;;;;;;;5089237;28;20187;-62
2022/03/02 08:59:39;;;;;;;6.05;5.00;;;;;;;;;;5077154;28;20172;-62
2022/03/02 09:02:06;;;;;;;4.57;4.13;;;;;;;;;;5098789;28;20187;-62
2022/03/02 09:04:33;;;;;;;4.47;4.07;;;;;;;;;;5104447;28;20596;-61
2022/03/02 09:06:59;;;;;;;4.45;4.05;;;;;;;;;;5095260;28;20205;-61
2022/03/02 09:09:25;;;;;;;4.85;4.35;;;;;;;;;;5098101;28;20176;-62
2022/03/02 09:11:50;;;;;;;3.53;3.22;;;;;;;;;;5100581;28;20186;-61
2022/03/02 09:14:17;;;;;;;3.28;2.97;;;;;;;;;;5101748;28;20172;-61
2022/03/02 09:16:44;;;;;;;10.45;9.07;;;;;;;;;;5098245;28;20169;-62
2022/03/02 09:19:10;;;;;;;4.38;3.95;;;;;;;;;;5096490;28;20238;-62
2022/03/02 09:21:36;;;;;;;4.53;4.13;;;;;;;;;;5097389;28;20183;-62
2022/03/02 09:24:01;;;;;;;6.57;5.05;;;;;;;;;;5098199;28;20728;-62
2022/03/02 09:26:27;;;;;;;2.97;2.78;;;;;;;;;;5101574;28;20175;-62
2022/03/02 09:28:52;;;;;;;5.65;4.47;;;;;;;;;;5100154;28;20164;-62
2022/03/02 09:31:20;;;;;;;3.00;2.70;;;;;;;;;;5096458;28;20739;-62
2022/03/02 09:33:55;;;;;;;3.30;2.88;;;;;;;;;;5102325;28;20180;-62
2022/03/02 09:36:22;;;;;;;2.80;2.70;;;;;;;;;;5095753;28;20200;-62
2022/03/02 09:38:48;;;;;;;3.28;3.08;;;;;;;;;;5093960;28;20269;-61
2022/03/02 09:41:17;;;;;;;3.08;2.88;;;;;;;;;;5076099;28;20172;-61
2022/03/02 09:43:46;;;;;;;2.90;2.70;;;;;;;;;;5097843;28;20405;-62
2022/03/02 09:46:16;;;;;;;3.25;2.42;;;;;;;;;;5096370;28;20172;-61
2022/03/02 09:48:47;;;;;;;3.42;3.13;;;;;;;;;;5094352;28;20259;-61
2022/03/02 09:51:17;;;;;;;5.35;4.85;;;;;;;;;;5091754;28;20223;-61
2022/03/02 09:53:47;;;;;;;4.00;3.60;;;;;;;;;;5103499;28;20557;-61
2022/03/02 09:56:12;;;;;;;4.25;3.85;;;;;;;;;;5101861;28;20630;-62
2022/03/02 09:58:38;;;;;;;4.20;3.80;;;;;;;;;;5101179;28;20290;-62
2022/03/02 10:01:08;;;;;;;4.57;4.18;;;;;;;;;;5102835;28;20189;-61
2022/03/02 10:03:37;;;;;;;5.30;4.80;;;;;;;;;;5101058;28;20164;-62
2022/03/02 10:06:03;;;;;;;4.32;3.97;;;;;;;;;;5105509;28;20176;-62
2022/03/02 10:08:32;;;;;;;3.63;3.33;;;;;;;;;;5103185;28;20172;-61
2022/03/02 10:11:01;;;;;;;3.33;3.00;;;;;;;;;;5100474;28;20210;-62
2022/03/02 10:13:27;;;;;;;3.22;3.00;;;;;;;;;;5105898;28;20211;-62
2022/03/02 10:15:52;;;;;;;3.47;3.17;;;;;;;;;;5105817;28;20199;-62
2022/03/02 10:18:17;;;;;;;3.88;3.40;;;;;;;;;;5105386;28;20204;-62
2022/03/02 10:20:49;;;;;;;4.88;4.35;;;;;;;;;;5090852;28;20241;-62
2022/03/02 10:23:33;;;;;;;4.07;3.78;;;;;;;;;;5099489;28;20531;-62
2022/03/02 10:26:08;;;;;;;3.95;3.65;;;;;;;;;;5101577;28;20629;-62
2022/03/02 10:28:36;;;;;;;6.60;4.13;;;;;;;;;;5101211;28;20209;-62
2022/03/02 10:31:07;;;;;;;6.78;6.07;;;;;;;;;;5094248;28;20183;-63
2022/03/02 10:33:36;;;;;;;5.63;5.13;;;;;;;;;;5103412;28;20180;-62
2022/03/02 10:36:03;;;;;;;4.25;3.85;;;;;;;;;;5094777;28;20171;-62
2022/03/02 10:38:38;;;;;;;6.57;5.32;;;;;;;;;;5098365;28;20199;-62
2022/03/02 10:41:06;;;;;;;3.75;3.45;;;;;;;;;;5105683;28;20653;-63
2022/03/02 10:43:39;;;;;;;4.03;3.63;;;;;;;;;;5100339;28;20172;-62
2022/03/02 10:46:06;;;;;;;3.53;3.22;;;;;;;;;;5100339;28;20190;-62
2022/03/02 10:48:31;;;;;;;4.63;4.07;;;;;;;;;;5101706;28;20692;-62
2022/03/02 10:50:57;;;;;;;4.97;4.38;;;;;;;;;;5094535;28;20393;-62
2022/03/02 10:53:25;;;;;;;4.18;3.78;;;;;;;;;;5104248;28;21065;-62
2022/03/02 10:55:50;;;;;;;5.60;4.63;;;;;;;;;;5097901;28;20199;-63
2022/03/02 10:58:19;;;;;;;4.97;4.55;;;;;;;;;;5095085;28;20207;-62
2022/03/02 11:00:46;;;;;;;3.63;3.33;;;;;;;;;;5093077;28;20659;-62
2022/03/02 11:03:12;;;;;;;3.53;3.22;;;;;;;;;;5088425;28;20180;-62
2022/03/02 11:05:38;;;;;;;6.55;5.30;;;;;;;;;;5097839;28;20175;-62
2022/03/02 11:08:03;;;;;;;4.20;3.75;;;;;;;;;;5101010;28;20183;-62
2022/03/02 11:10:33;;;;;;;3.85;3.55;;;;;;;;;;5096534;28;20677;-62
2022/03/02 11:12:58;;;;;;;3.90;3.60;;;;;;;;;;5093121;28;20176;-62
2022/03/02 11:15:24;;;;;;;7.25;6.28;;;;;;;;;;5101483;28;20183;-63
2022/03/02 11:17:58;;;;;;;9.13;7.03;;;;;;;;;;5104345;28;20203;-63
2022/03/02 11:20:24;;;;;;;4.53;3.05;;;;;;;;;;5102891;28;20194;-63
2022/03/02 11:22:55;;;;;;;5.00;3.92;;;;;;;;;;5096986;28;20211;-63
2022/03/02 11:25:38;;;;;;;3.28;2.90;;;;;;;;;;5084729;28;20856;-63
2022/03/02 11:28:05;;;;;;;4.72;4.20;;;;;;;;;;5099266;28;20175;-62
2022/03/02 11:30:30;;;;;;;9.65;6.35;;;;;;;;;;5102942;28;20187;-63
2022/03/02 11:33:05;;;;;;;4.03;3.60;;;;;;;;;;5095750;28;20309;-62
2022/03/02 11:35:35;;;;;;;3.25;3.05;;;;;;;;;;5101270;28;20179;-62
2022/03/02 11:38:01;;;;;;;3.47;3.17;;;;;;;;;;5102402;28;20219;-63
2022/03/02 11:40:38;;;;;;;3.42;3.13;;;;;;;;;;5100949;28;20182;-63
2022/03/02 11:43:14;;;;;;;6.20;3.55;;;;;;;;;;5103876;28;21056;-62
2022/03/02 11:45:39;;;;;;;4.53;3.50;;;;;;;;;;5098956;28;20282;-63
2022/03/02 11:48:13;;;;;;;3.13;2.83;;;;;;;;;;5098316;28;20263;-61
2022/03/02 11:50:42;;;;;;;4.40;3.75;;;;;;;;;;5100562;28;20238;-62
2022/03/02 11:53:08;;;;;;;5.82;4.28;;;;;;;;;;5096761;28;20707;-61
2022/03/02 11:55:35;;;;;;;9.55;7.32;;;;;;;;;;5099400;28;20183;-61
2022/03/02 11:58:01;;;;;;;3.58;3.22;;;;;;;;;;5096662;28;20290;-62
2022/03/02 12:00:28;;;;;;;3.67;3.38;;;;;;;;;;5095463;28;20626;-62
2022/03/02 12:02:58;;;;;;;3.40;3.08;;;;;;;;;;5100550;28;20672;-61
2022/03/02 12:05:27;;;;;;;6.80;5.60;;;;;;;;;;5105235;28;20616;-61
2022/03/02 12:07:59;;;;;;;4.53;4.15;;;;;;;;;;5098211;28;20181;-61
2022/03/02 12:10:26;;;;;;;3.42;3.13;;;;;;;;;;5098962;28;20183;-61
2022/03/02 12:12:52;;;;;;;3.38;3.00;;;;;;;;;;5103940;28;20218;-61
2022/03/02 12:15:18;;;;;;;4.10;3.70;;;;;;;;;;5100310;28;20648;-61
2022/03/02 12:17:44;;;;;;;4.82;4.35;;;;;;;;;;5096540;28;20203;-61
2022/03/02 12:20:11;;;;;;;4.63;4.22;;;;;;;;;;5091123;28;20188;-61
2022/03/02 12:22:39;;;;;;;4.40;3.75;;;;;;;;;;5098041;28;20180;-61
2022/03/02 12:25:05;;;;;;;5.53;4.57;;;;;;;;;;5096849;28;20203;-61
2022/03/02 12:27:30;;;;;;;4.75;3.65;;;;;;;;;;5093445;28;20350;-61
2022/03/02 12:30:01;;;;;;;3.97;3.45;;;;;;;;;;5097747;28;20756;-61
2022/03/02 12:32:28;;;;;;;7.65;6.32;;;;;;;;;;5099304;28;20182;-61
2022/03/02 12:34:54;;;;;;;4.28;3.88;;;;;;;;;;5098763;28;20241;-61
2022/03/02 12:37:20;;;;;;;6.32;4.85;;;;;;;;;;5103637;28;20280;-62
2022/03/02 12:39:47;;;;;;;4.38;3.97;;;;;;;;;;5094424;28;20208;-61
2022/03/02 12:42:13;;;;;;;4.45;4.05;;;;;;;;;;5097936;28;20179;-61
2022/03/02 12:44:40;;;;;;;5.85;5.30;;;;;;;;;;5106399;28;20625;-61
2022/03/02 12:47:07;;;;;;;4.40;4.00;;;;;;;;;;5087666;28;20247;-61
2022/03/02 12:49:33;;;;;;;4.72;4.22;;;;;;;;;;5095928;28;20758;-61
2022/03/02 12:51:59;;;;;;;3.70;3.40;;;;;;;;;;5097882;28;20190;-61
2022/03/02 12:54:25;;;;;;;4.53;4.13;;;;;;;;;;5101490;28;20253;-61
2022/03/02 12:56:50;;;;;;;3.47;3.17;;;;;;;;;;5095600;28;20199;-61
2022/03/02 12:59:16;;;;;;;3.72;3.30;;;;;;;;;;5106436;28;20202;-61
2022/03/02 13:01:42;;;;;;;3.20;3.00;;;;;;;;;;5091846;28;20176;-61
2022/03/02 13:04:11;;;;;;;4.68;4.25;;;;;;;;;;5096597;28;20190;-63
2022/03/02 13:06:38;;;;;;;4.45;4.07;;;;;;;;;;5101307;28;20180;-62
2022/03/02 13:09:16;;;;;;;4.53;4.10;;;;;;;;;;5100225;28;20704;-62
2022/03/02 13:11:42;;;;;;;5.20;4.10;;;;;;;;;;5096483;28;20295;-62
2022/03/02 13:14:26;;;;;;;5.05;4.57;;;;;;;;;;5098724;28;20771;-62
2022/03/02 13:16:51;;;;;;;5.68;5.00;;;;;;;;;;5097459;28;20214;-63
2022/03/02 13:19:17;;;;;;;4.80;4.40;;;;;;;;;;5096037;28;20200;-62
2022/03/02 13:21:56;;;;;;;7.15;4.65;;;;;;;;;;5105393;28;20168;-62
2022/03/02 13:24:21;;;;;;;9.85;7.22;;;;;;;;;;5105727;28;20187;-62
2022/03/02 13:26:56;;;;;;;6.80;5.65;;;;;;;;;;5100583;28;20178;-62
2022/03/02 13:29:22;;;;;;;4.88;4.35;;;;;;;;;;5094452;28;20274;-62
2022/03/02 13:31:51;;;;;;;10.00;8.48;;;;;;;;;;5078418;28;20361;-63
2022/03/02 13:34:17;;;;;;;7.70;5.93;;;;;;;;;;5097052;28;20175;-62
2022/03/02 13:36:45;;;;;;;7.95;6.63;;;;;;;;;;5100989;28;20199;-62
2022/03/02 13:39:15;;;;;;;7.63;6.63;;;;;;;;;;5098538;28;20715;-62
2022/03/02 13:41:45;;;;;;;5.95;5.15;;;;;;;;;;5098632;28;20179;-62
2022/03/02 13:44:24;;;;;;;5.00;4.50;;;;;;;;;;5095853;28;20187;-62
2022/03/02 13:47:05;;;;;;;5.43;4.85;;;;;;;;;;5094130;28;20176;-62
2022/03/02 13:49:52;;;;;;;5.30;4.05;;;;;;;;;;5095423;28;20282;-62
2022/03/02 13:52:19;;;;;;;5.63;5.03;;;;;;;;;;5092349;28;20184;-62
2022/03/02 13:54:45;;;;;;;7.50;4.45;;;;;;;;;;5076852;28;20180;-62
2022/03/02 13:57:17;;;;;;;4.45;4.10;;;;;;;;;;5099462;28;20699;-62
2022/03/02 13:59:43;;;;;;;4.68;4.25;;;;;;;;;;5094880;28;20179;-62
2022/03/02 14:02:08;;;;;;;5.43;4.35;;;;;;;;;;5090775;28;20169;-61
2022/03/02 14:04:33;;;;;;;6.50;3.70;;;;;;;;;;5092118;28;20180;-61
2022/03/02 14:07:04;;;;;;;4.57;4.10;;;;;;;;;;5096348;28;20234;-62
2022/03/02 14:09:30;;;;;;;3.90;3.53;;;;;;;;;;5093036;28;20443;-62
2022/03/02 14:11:56;;;;;;;4.88;4.38;;;;;;;;;;5097680;28;20781;-62
2022/03/02 14:14:21;;;;;;;5.18;4.70;;;;;;;;;;5075439;28;20180;-62
2022/03/02 14:17:07;;;;;;;5.45;4.95;;;;;;;;;;5077142;28;20218;-62
2022/03/02 14:19:43;;;;;;;4.25;3.75;;;;;;;;;;5102854;28;20206;-62
2022/03/02 14:22:11;;;;;;;6.45;4.70;;;;;;;;;;5096043;28;20711;-62
2022/03/02 14:24:37;;;;;;;6.68;5.28;;;;;;;;;;5101286;28;20610;-63
2022/03/02 14:27:14;;;;;;;5.20;4.70;;;;;;;;;;5092560;28;20728;-63
2022/03/02 14:29:40;;;;;;;6.78;5.85;;;;;;;;;;5102634;28;20240;-63
2022/03/02 14:32:07;;;;;;;5.57;4.70;;;;;;;;;;5094060;28;20176;-62
2022/03/02 14:34:45;;;;;;;5.63;5.10;;;;;;;;;;5099102;28;20214;-62
2022/03/02 14:37:12;;;;;;;4.25;3.90;;;;;;;;;;5096286;28;20247;-62